sensor_id;sensor_type;location;lat;lon;timestamp;P1;durP1;ratioP1;P2;durP2;ratioP2
25639;SDS011;13497;48.322;16.204;2023-12-20T00:01:01;18.25;;;15.02;;
25639;SDS011;13497;48.322;16.204;2023-12-20T00:03:26;22.40;;;20.00;;
25639;SDS011;13497;48.322;16.204;2023-12-20T00:05:52;19.08;;;15.88;;
25639;SDS011;13497;48.322;16.204;2023-12-20T00:08:18;20.60;;;15.57;;
25639;SDS011;13497;48.322;16.204;2023-12-20T00:10:44;20.10;;;17.73;;
25639;SDS011;13497;48.322;16.204;2023-12-20T00:13:09;16.88;;;15.10;;
25639;SDS011;13497;48.322;16.204;2023-12-20T00:15:35;12.93;;;11.40;;
25639;SDS011;13497;48.322;16.204;2023-12-20T00:18:01;14.20;;;10.43;;
25639;SDS011;13497;48.322;16.204;2023-12-20T00:20:28;8.73;;;7.15;;
25639;SDS011;13497;48.322;16.204;2023-12-20T00:22:55;11.15;;;7.93;;
25639;SDS011;13497;48.322;16.204;2023-12-20T00:25:22;10.25;;;8.98;;
25639;SDS011;13497;48.322;16.204;2023-12-20T00:27:48;7.07;;;6.47;;
25639;SDS011;13497;48.322;16.204;2023-12-20T00:30:14;10.43;;;9.82;;
25639;SDS011;13497;48.322;16.204;2023-12-20T00:32:39;4.35;;;2.58;;
25639;SDS011;13497;48.322;16.204;2023-12-20T00:35:11;22.05;;;13.73;;
25639;SDS011;13497;48.322;16.204;2023-12-20T00:37:37;14.82;;;10.65;;
25639;SDS011;13497;48.322;16.204;2023-12-20T00:40:03;9.60;;;8.00;;
25639;SDS011;13497;48.322;16.204;2023-12-20T00:42:29;11.73;;;9.18;;
25639;SDS011;13497;48.322;16.204;2023-12-20T00:44:55;16.90;;;12.48;;
25639;SDS011;13497;48.322;16.204;2023-12-20T00:47:20;13.98;;;11.00;;
25639;SDS011;13497;48.322;16.204;2023-12-20T00:49:47;8.27;;;7.50;;
25639;SDS011;13497;48.322;16.204;2023-12-20T00:52:12;8.38;;;5.55;;
25639;SDS011;13497;48.322;16.204;2023-12-20T00:54:39;8.63;;;7.78;;
25639;SDS011;13497;48.322;16.204;2023-12-20T00:57:04;9.80;;;4.65;;
25639;SDS011;13497;48.322;16.204;2023-12-20T00:59:30;8.25;;;5.28;;
25639;SDS011;13497;48.322;16.204;2023-12-20T01:01:56;5.88;;;4.50;;
25639;SDS011;13497;48.322;16.204;2023-12-20T01:04:21;10.60;;;9.65;;
25639;SDS011;13497;48.322;16.204;2023-12-20T01:06:47;18.45;;;15.05;;
25639;SDS011;13497;48.322;16.204;2023-12-20T01:09:13;17.45;;;14.35;;
25639;SDS011;13497;48.322;16.204;2023-12-20T01:11:38;18.33;;;16.40;;
25639;SDS011;13497;48.322;16.204;2023-12-20T01:14:04;17.02;;;15.25;;
25639;SDS011;13497;48.322;16.204;2023-12-20T01:16:30;15.48;;;13.68;;
25639;SDS011;13497;48.322;16.204;2023-12-20T01:18:55;15.48;;;13.88;;
25639;SDS011;13497;48.322;16.204;2023-12-20T01:21:21;13.18;;;11.77;;
25639;SDS011;13497;48.322;16.204;2023-12-20T01:23:47;14.05;;;12.60;;
25639;SDS011;13497;48.322;16.204;2023-12-20T01:26:12;11.82;;;9.90;;
25639;SDS011;13497;48.322;16.204;2023-12-20T01:31:05;8.20;;;7.38;;
25639;SDS011;13497;48.322;16.204;2023-12-20T01:33:31;5.55;;;5.05;;
25639;SDS011;13497;48.322;16.204;2023-12-20T01:35:56;8.95;;;8.02;;
25639;SDS011;13497;48.322;16.204;2023-12-20T01:38:22;9.57;;;8.10;;
25639;SDS011;13497;48.322;16.204;2023-12-20T01:40:48;8.30;;;6.95;;
25639;SDS011;13497;48.322;16.204;2023-12-20T01:43:13;7.35;;;6.40;;
25639;SDS011;13497;48.322;16.204;2023-12-20T01:45:39;8.65;;;7.88;;
25639;SDS011;13497;48.322;16.204;2023-12-20T01:48:05;5.78;;;4.55;;
25639;SDS011;13497;48.322;16.204;2023-12-20T01:50:33;6.70;;;6.07;;
25639;SDS011;13497;48.322;16.204;2023-12-20T01:53:02;11.13;;;8.55;;
25639;SDS011;13497;48.322;16.204;2023-12-20T01:55:32;11.25;;;9.10;;
25639;SDS011;13497;48.322;16.204;2023-12-20T01:57:59;11.10;;;10.00;;
25639;SDS011;13497;48.322;16.204;2023-12-20T02:00:26;12.30;;;11.20;;
25639;SDS011;13497;48.322;16.204;2023-12-20T02:02:54;7.85;;;7.05;;
25639;SDS011;13497;48.322;16.204;2023-12-20T02:05:20;6.28;;;4.28;;
25639;SDS011;13497;48.322;16.204;2023-12-20T02:07:47;3.67;;;3.20;;
25639;SDS011;13497;48.322;16.204;2023-12-20T02:10:13;3.15;;;2.92;;
25639;SDS011;13497;48.322;16.204;2023-12-20T02:12:39;3.45;;;3.15;;
25639;SDS011;13497;48.322;16.204;2023-12-20T02:15:05;2.67;;;2.00;;
25639;SDS011;13497;48.322;16.204;2023-12-20T02:17:31;3.38;;;2.80;;
25639;SDS011;13497;48.322;16.204;2023-12-20T02:19:57;3.83;;;2.65;;
25639;SDS011;13497;48.322;16.204;2023-12-20T02:22:23;2.40;;;1.50;;
25639;SDS011;13497;48.322;16.204;2023-12-20T02:24:49;4.72;;;2.03;;
25639;SDS011;13497;48.322;16.204;2023-12-20T02:27:14;3.33;;;2.72;;
25639;SDS011;13497;48.322;16.204;2023-12-20T02:29:43;3.70;;;2.75;;
25639;SDS011;13497;48.322;16.204;2023-12-20T02:32:08;2.83;;;2.63;;
25639;SDS011;13497;48.322;16.204;2023-12-20T02:34:34;2.75;;;2.30;;
25639;SDS011;13497;48.322;16.204;2023-12-20T02:37:00;3.60;;;3.30;;
25639;SDS011;13497;48.322;16.204;2023-12-20T02:39:26;3.55;;;3.25;;
25639;SDS011;13497;48.322;16.204;2023-12-20T02:41:52;9.02;;;4.82;;
25639;SDS011;13497;48.322;16.204;2023-12-20T02:44:17;4.15;;;2.30;;
25639;SDS011;13497;48.322;16.204;2023-12-20T02:46:43;11.25;;;10.65;;
25639;SDS011;13497;48.322;16.204;2023-12-20T02:49:09;3.25;;;2.35;;
25639;SDS011;13497;48.322;16.204;2023-12-20T02:51:35;3.28;;;2.72;;
25639;SDS011;13497;48.322;16.204;2023-12-20T02:54:03;3.45;;;3.15;;
25639;SDS011;13497;48.322;16.204;2023-12-20T02:56:30;3.03;;;2.53;;
25639;SDS011;13497;48.322;16.204;2023-12-20T03:03:48;3.03;;;2.78;;
25639;SDS011;13497;48.322;16.204;2023-12-20T03:06:17;3.63;;;3.33;;
25639;SDS011;13497;48.322;16.204;2023-12-20T03:08:44;2.60;;;2.35;;
25639;SDS011;13497;48.322;16.204;2023-12-20T03:11:10;3.72;;;3.42;;
25639;SDS011;13497;48.322;16.204;2023-12-20T03:13:36;3.40;;;2.58;;
25639;SDS011;13497;48.322;16.204;2023-12-20T03:16:07;2.58;;;2.15;;
25639;SDS011;13497;48.322;16.204;2023-12-20T03:18:34;5.15;;;4.22;;
25639;SDS011;13497;48.322;16.204;2023-12-20T03:20:59;4.43;;;4.13;;
25639;SDS011;13497;48.322;16.204;2023-12-20T03:23:25;6.65;;;4.18;;
25639;SDS011;13497;48.322;16.204;2023-12-20T03:25:52;5.03;;;2.65;;
25639;SDS011;13497;48.322;16.204;2023-12-20T03:28:17;4.53;;;3.45;;
25639;SDS011;13497;48.322;16.204;2023-12-20T03:30:44;3.75;;;3.42;;
25639;SDS011;13497;48.322;16.204;2023-12-20T03:33:10;4.35;;;3.92;;
25639;SDS011;13497;48.322;16.204;2023-12-20T03:35:35;4.10;;;3.70;;
25639;SDS011;13497;48.322;16.204;2023-12-20T03:38:02;3.95;;;3.63;;
25639;SDS011;13497;48.322;16.204;2023-12-20T03:40:27;12.73;;;11.93;;
25639;SDS011;13497;48.322;16.204;2023-12-20T03:42:53;3.70;;;3.28;;
25639;SDS011;13497;48.322;16.204;2023-12-20T03:45:19;5.20;;;3.67;;
25639;SDS011;13497;48.322;16.204;2023-12-20T03:47:44;5.90;;;5.38;;
25639;SDS011;13497;48.322;16.204;2023-12-20T03:50:10;3.67;;;2.38;;
25639;SDS011;13497;48.322;16.204;2023-12-20T03:52:36;4.35;;;3.47;;
25639;SDS011;13497;48.322;16.204;2023-12-20T03:55:01;4.97;;;3.60;;
25639;SDS011;13497;48.322;16.204;2023-12-20T03:57:28;6.05;;;3.97;;
25639;SDS011;13497;48.322;16.204;2023-12-20T03:59:53;4.60;;;3.92;;
25639;SDS011;13497;48.322;16.204;2023-12-20T04:02:19;3.55;;;3.25;;
25639;SDS011;13497;48.322;16.204;2023-12-20T04:04:45;3.83;;;3.42;;
25639;SDS011;13497;48.322;16.204;2023-12-20T04:07:10;4.85;;;4.40;;
25639;SDS011;13497;48.322;16.204;2023-12-20T04:09:36;4.03;;;3.05;;
25639;SDS011;13497;48.322;16.204;2023-12-20T04:12:01;5.95;;;3.72;;
25639;SDS011;13497;48.322;16.204;2023-12-20T04:14:27;3.45;;;2.47;;
25639;SDS011;13497;48.322;16.204;2023-12-20T04:16:53;4.35;;;2.72;;
25639;SDS011;13497;48.322;16.204;2023-12-20T04:19:19;4.70;;;3.72;;
25639;SDS011;13497;48.322;16.204;2023-12-20T04:21:45;7.38;;;4.05;;
25639;SDS011;13497;48.322;16.204;2023-12-20T04:24:10;4.43;;;3.65;;
25639;SDS011;13497;48.322;16.204;2023-12-20T04:26:36;4.82;;;3.15;;
25639;SDS011;13497;48.322;16.204;2023-12-20T04:29:02;10.27;;;5.25;;
25639;SDS011;13497;48.322;16.204;2023-12-20T04:31:27;4.90;;;4.47;;
25639;SDS011;13497;48.322;16.204;2023-12-20T04:33:53;14.40;;;13.60;;
25639;SDS011;13497;48.322;16.204;2023-12-20T04:36:19;13.50;;;12.70;;
25639;SDS011;13497;48.322;16.204;2023-12-20T04:38:44;5.13;;;4.65;;
25639;SDS011;13497;48.322;16.204;2023-12-20T04:41:10;5.13;;;3.67;;
25639;SDS011;13497;48.322;16.204;2023-12-20T04:43:36;10.20;;;9.50;;
25639;SDS011;13497;48.322;16.204;2023-12-20T04:46:02;5.72;;;4.57;;
25639;SDS011;13497;48.322;16.204;2023-12-20T04:48:28;5.40;;;2.70;;
25639;SDS011;13497;48.322;16.204;2023-12-20T04:50:53;4.45;;;4.05;;
25639;SDS011;13497;48.322;16.204;2023-12-20T04:53:19;5.53;;;4.53;;
25639;SDS011;13497;48.322;16.204;2023-12-20T04:55:45;4.40;;;3.50;;
25639;SDS011;13497;48.322;16.204;2023-12-20T04:58:10;4.20;;;3.53;;
25639;SDS011;13497;48.322;16.204;2023-12-20T05:00:36;4.72;;;3.25;;
25639;SDS011;13497;48.322;16.204;2023-12-20T05:03:02;5.25;;;4.75;;
25639;SDS011;13497;48.322;16.204;2023-12-20T05:05:27;5.47;;;2.92;;
25639;SDS011;13497;48.322;16.204;2023-12-20T05:07:53;9.02;;;8.32;;
25639;SDS011;13497;48.322;16.204;2023-12-20T05:10:19;6.03;;;3.15;;
25639;SDS011;13497;48.322;16.204;2023-12-20T05:12:44;7.05;;;6.43;;
25639;SDS011;13497;48.322;16.204;2023-12-20T05:15:10;12.38;;;9.95;;
25639;SDS011;13497;48.322;16.204;2023-12-20T05:17:36;10.95;;;10.13;;
25639;SDS011;13497;48.322;16.204;2023-12-20T05:20:01;4.32;;;3.65;;
25639;SDS011;13497;48.322;16.204;2023-12-20T05:22:27;4.20;;;3.72;;
25639;SDS011;13497;48.322;16.204;2023-12-20T05:24:53;4.20;;;3.78;;
25639;SDS011;13497;48.322;16.204;2023-12-20T05:27:19;5.60;;;4.22;;
25639;SDS011;13497;48.322;16.204;2023-12-20T05:29:44;5.63;;;4.72;;
25639;SDS011;13497;48.322;16.204;2023-12-20T05:32:10;5.20;;;3.13;;
25639;SDS011;13497;48.322;16.204;2023-12-20T05:34:36;4.90;;;3.67;;
25639;SDS011;13497;48.322;16.204;2023-12-20T05:37:01;10.75;;;9.95;;
25639;SDS011;13497;48.322;16.204;2023-12-20T05:39:27;5.40;;;4.22;;
25639;SDS011;13497;48.322;16.204;2023-12-20T05:41:53;4.50;;;3.75;;
25639;SDS011;13497;48.322;16.204;2023-12-20T05:44:19;4.72;;;3.53;;
25639;SDS011;13497;48.322;16.204;2023-12-20T05:46:44;6.13;;;3.95;;
25639;SDS011;13497;48.322;16.204;2023-12-20T05:49:10;5.18;;;4.07;;
25639;SDS011;13497;48.322;16.204;2023-12-20T05:51:35;5.13;;;4.07;;
25639;SDS011;13497;48.322;16.204;2023-12-20T05:54:01;4.78;;;4.13;;
25639;SDS011;13497;48.322;16.204;2023-12-20T05:56:27;10.80;;;5.00;;
25639;SDS011;13497;48.322;16.204;2023-12-20T05:58:53;5.38;;;3.55;;
25639;SDS011;13497;48.322;16.204;2023-12-20T06:01:18;7.00;;;4.15;;
25639;SDS011;13497;48.322;16.204;2023-12-20T06:03:44;7.00;;;5.30;;
25639;SDS011;13497;48.322;16.204;2023-12-20T06:06:11;7.20;;;4.72;;
25639;SDS011;13497;48.322;16.204;2023-12-20T06:08:37;7.82;;;4.03;;
25639;SDS011;13497;48.322;16.204;2023-12-20T06:11:03;6.75;;;4.47;;
25639;SDS011;13497;48.322;16.204;2023-12-20T06:13:30;5.93;;;5.20;;
25639;SDS011;13497;48.322;16.204;2023-12-20T06:15:56;13.60;;;5.95;;
25639;SDS011;13497;48.322;16.204;2023-12-20T06:18:22;6.45;;;4.25;;
25639;SDS011;13497;48.322;16.204;2023-12-20T06:20:48;3.75;;;2.50;;
25639;SDS011;13497;48.322;16.204;2023-12-20T06:23:14;4.55;;;3.45;;
25639;SDS011;13497;48.322;16.204;2023-12-20T06:25:39;6.32;;;5.65;;
25639;SDS011;13497;48.322;16.204;2023-12-20T06:28:05;5.68;;;4.65;;
25639;SDS011;13497;48.322;16.204;2023-12-20T06:30:31;8.43;;;4.22;;
25639;SDS011;13497;48.322;16.204;2023-12-20T06:32:57;4.88;;;3.95;;
25639;SDS011;13497;48.322;16.204;2023-12-20T06:35:23;6.00;;;3.50;;
25639;SDS011;13497;48.322;16.204;2023-12-20T06:37:49;9.70;;;4.65;;
25639;SDS011;13497;48.322;16.204;2023-12-20T06:40:15;7.43;;;4.65;;
25639;SDS011;13497;48.322;16.204;2023-12-20T06:42:41;4.97;;;3.95;;
25639;SDS011;13497;48.322;16.204;2023-12-20T06:45:07;10.75;;;10.05;;
25639;SDS011;13497;48.322;16.204;2023-12-20T06:47:33;7.55;;;6.45;;
25639;SDS011;13497;48.322;16.204;2023-12-20T06:49:58;3.65;;;2.90;;
25639;SDS011;13497;48.322;16.204;2023-12-20T06:52:24;4.60;;;4.20;;
25639;SDS011;13497;48.322;16.204;2023-12-20T06:54:50;4.03;;;3.15;;
25639;SDS011;13497;48.322;16.204;2023-12-20T06:57:16;9.93;;;3.80;;
25639;SDS011;13497;48.322;16.204;2023-12-20T06:59:41;4.45;;;4.05;;
25639;SDS011;13497;48.322;16.204;2023-12-20T07:02:08;4.85;;;3.30;;
25639;SDS011;13497;48.322;16.204;2023-12-20T07:04:34;6.28;;;3.40;;
25639;SDS011;13497;48.322;16.204;2023-12-20T07:07:03;4.75;;;3.45;;
25639;SDS011;13497;48.322;16.204;2023-12-20T07:09:29;4.68;;;3.38;;
25639;SDS011;13497;48.322;16.204;2023-12-20T07:11:55;5.28;;;4.00;;
25639;SDS011;13497;48.322;16.204;2023-12-20T07:14:21;5.55;;;4.03;;
25639;SDS011;13497;48.322;16.204;2023-12-20T07:16:46;4.97;;;4.22;;
25639;SDS011;13497;48.322;16.204;2023-12-20T07:19:12;7.80;;;3.90;;
25639;SDS011;13497;48.322;16.204;2023-12-20T07:21:38;8.48;;;4.60;;
25639;SDS011;13497;48.322;16.204;2023-12-20T07:24:03;8.70;;;4.60;;
25639;SDS011;13497;48.322;16.204;2023-12-20T07:26:29;7.13;;;5.78;;
25639;SDS011;13497;48.322;16.204;2023-12-20T07:28:55;5.95;;;4.18;;
25639;SDS011;13497;48.322;16.204;2023-12-20T07:31:21;4.07;;;3.63;;
25639;SDS011;13497;48.322;16.204;2023-12-20T07:33:46;7.15;;;6.25;;
25639;SDS011;13497;48.322;16.204;2023-12-20T07:36:12;8.65;;;6.75;;
25639;SDS011;13497;48.322;16.204;2023-12-20T07:38:38;5.75;;;4.38;;
25639;SDS011;13497;48.322;16.204;2023-12-20T07:41:04;5.38;;;4.72;;
25639;SDS011;13497;48.322;16.204;2023-12-20T07:43:30;5.25;;;4.40;;
25639;SDS011;13497;48.322;16.204;2023-12-20T07:45:55;6.65;;;5.22;;
25639;SDS011;13497;48.322;16.204;2023-12-20T07:48:21;5.40;;;4.80;;
25639;SDS011;13497;48.322;16.204;2023-12-20T07:50:47;5.90;;;5.30;;
25639;SDS011;13497;48.322;16.204;2023-12-20T07:53:12;6.53;;;3.83;;
25639;SDS011;13497;48.322;16.204;2023-12-20T07:55:38;6.55;;;4.72;;
25639;SDS011;13497;48.322;16.204;2023-12-20T07:58:04;6.70;;;5.80;;
25639;SDS011;13497;48.322;16.204;2023-12-20T08:00:30;7.00;;;4.22;;
25639;SDS011;13497;48.322;16.204;2023-12-20T08:02:56;4.90;;;4.07;;
25639;SDS011;13497;48.322;16.204;2023-12-20T08:05:22;4.47;;;3.83;;
25639;SDS011;13497;48.322;16.204;2023-12-20T08:07:47;6.07;;;3.85;;
25639;SDS011;13497;48.322;16.204;2023-12-20T08:10:13;5.38;;;4.88;;
25639;SDS011;13497;48.322;16.204;2023-12-20T08:12:39;7.47;;;6.38;;
25639;SDS011;13497;48.322;16.204;2023-12-20T08:15:05;5.72;;;4.57;;
25639;SDS011;13497;48.322;16.204;2023-12-20T08:17:31;22.45;;;16.75;;
25639;SDS011;13497;48.322;16.204;2023-12-20T08:19:56;14.85;;;11.32;;
25639;SDS011;13497;48.322;16.204;2023-12-20T08:22:22;38.67;;;24.45;;
25639;SDS011;13497;48.322;16.204;2023-12-20T08:24:48;31.40;;;17.50;;
25639;SDS011;13497;48.322;16.204;2023-12-20T08:27:14;8.30;;;7.50;;
25639;SDS011;13497;48.322;16.204;2023-12-20T08:29:39;4.78;;;4.25;;
25639;SDS011;13497;48.322;16.204;2023-12-20T08:32:05;8.40;;;4.40;;
25639;SDS011;13497;48.322;16.204;2023-12-20T08:34:31;4.82;;;3.95;;
25639;SDS011;13497;48.322;16.204;2023-12-20T08:36:56;4.95;;;3.60;;
25639;SDS011;13497;48.322;16.204;2023-12-20T08:39:22;5.65;;;4.55;;
25639;SDS011;13497;48.322;16.204;2023-12-20T08:41:48;5.55;;;4.82;;
25639;SDS011;13497;48.322;16.204;2023-12-20T08:44:13;4.30;;;3.45;;
25639;SDS011;13497;48.322;16.204;2023-12-20T08:46:39;4.32;;;3.92;;
25639;SDS011;13497;48.322;16.204;2023-12-20T08:49:05;5.90;;;4.18;;
25639;SDS011;13497;48.322;16.204;2023-12-20T08:51:31;4.03;;;2.67;;
25639;SDS011;13497;48.322;16.204;2023-12-20T08:53:57;5.30;;;4.43;;
25639;SDS011;13497;48.322;16.204;2023-12-20T08:56:23;6.22;;;3.17;;
25639;SDS011;13497;48.322;16.204;2023-12-20T08:58:48;4.55;;;4.13;;
25639;SDS011;13497;48.322;16.204;2023-12-20T09:01:14;5.50;;;5.10;;
25639;SDS011;13497;48.322;16.204;2023-12-20T09:03:40;4.28;;;3.88;;
25639;SDS011;13497;48.322;16.204;2023-12-20T09:06:09;6.63;;;6.13;;
25639;SDS011;13497;48.322;16.204;2023-12-20T09:08:34;5.45;;;4.20;;
25639;SDS011;13497;48.322;16.204;2023-12-20T09:11:00;4.03;;;3.30;;
25639;SDS011;13497;48.322;16.204;2023-12-20T09:13:25;3.95;;;3.58;;
25639;SDS011;13497;48.322;16.204;2023-12-20T09:15:57;5.93;;;5.07;;
25639;SDS011;13497;48.322;16.204;2023-12-20T09:18:23;20.40;;;18.08;;
25639;SDS011;13497;48.322;16.204;2023-12-20T09:20:49;13.63;;;12.77;;
25639;SDS011;13497;48.322;16.204;2023-12-20T09:23:15;8.20;;;6.63;;
25639;SDS011;13497;48.322;16.204;2023-12-20T09:25:40;4.68;;;3.60;;
25639;SDS011;13497;48.322;16.204;2023-12-20T09:28:06;4.90;;;4.47;;
25639;SDS011;13497;48.322;16.204;2023-12-20T09:30:32;4.55;;;3.30;;
25639;SDS011;13497;48.322;16.204;2023-12-20T09:32:58;3.17;;;2.88;;
25639;SDS011;13497;48.322;16.204;2023-12-20T09:35:23;6.80;;;6.30;;
25639;SDS011;13497;48.322;16.204;2023-12-20T09:37:49;5.55;;;3.88;;
25639;SDS011;13497;48.322;16.204;2023-12-20T09:40:16;4.78;;;4.32;;
25639;SDS011;13497;48.322;16.204;2023-12-20T09:45:28;15.63;;;14.82;;
25639;SDS011;13497;48.322;16.204;2023-12-20T09:47:56;4.47;;;3.78;;
25639;SDS011;13497;48.322;16.204;2023-12-20T09:50:23;5.35;;;2.35;;
25639;SDS011;13497;48.322;16.204;2023-12-20T09:52:49;3.40;;;3.10;;
25639;SDS011;13497;48.322;16.204;2023-12-20T09:55:17;3.17;;;2.53;;
25639;SDS011;13497;48.322;16.204;2023-12-20T09:57:44;2.78;;;2.58;;
25639;SDS011;13497;48.322;16.204;2023-12-20T10:00:10;2.58;;;2.38;;
25639;SDS011;13497;48.322;16.204;2023-12-20T10:02:37;2.83;;;2.60;;
25639;SDS011;13497;48.322;16.204;2023-12-20T10:05:07;4.03;;;3.72;;
25639;SDS011;13497;48.322;16.204;2023-12-20T10:07:38;2.63;;;2.42;;
25639;SDS011;13497;48.322;16.204;2023-12-20T10:10:04;2.80;;;2.60;;
25639;SDS011;13497;48.322;16.204;2023-12-20T10:12:31;3.22;;;3.03;;
25639;SDS011;13497;48.322;16.204;2023-12-20T10:14:57;4.15;;;3.85;;
25639;SDS011;13497;48.322;16.204;2023-12-20T10:17:23;3.20;;;2.95;;
25639;SDS011;13497;48.322;16.204;2023-12-20T10:19:49;2.60;;;1.95;;
25639;SDS011;13497;48.322;16.204;2023-12-20T10:22:14;2.50;;;2.30;;
25639;SDS011;13497;48.322;16.204;2023-12-20T10:24:40;15.70;;;10.95;;
25639;SDS011;13497;48.322;16.204;2023-12-20T10:27:07;4.75;;;4.22;;
25639;SDS011;13497;48.322;16.204;2023-12-20T10:29:36;5.13;;;4.43;;
25639;SDS011;13497;48.322;16.204;2023-12-20T10:32:21;6.20;;;5.70;;
25639;SDS011;13497;48.322;16.204;2023-12-20T10:34:51;4.20;;;3.47;;
25639;SDS011;13497;48.322;16.204;2023-12-20T10:37:18;5.40;;;3.25;;
25639;SDS011;13497;48.322;16.204;2023-12-20T10:39:45;2.88;;;2.55;;
25639;SDS011;13497;48.322;16.204;2023-12-20T10:42:23;3.42;;;2.85;;
25639;SDS011;13497;48.322;16.204;2023-12-20T10:44:52;5.30;;;4.88;;
25639;SDS011;13497;48.322;16.204;2023-12-20T10:47:19;3.10;;;2.17;;
25639;SDS011;13497;48.322;16.204;2023-12-20T10:49:45;3.58;;;3.25;;
25639;SDS011;13497;48.322;16.204;2023-12-20T10:52:12;6.47;;;5.88;;
25639;SDS011;13497;48.322;16.204;2023-12-20T10:54:38;6.43;;;5.82;;
25639;SDS011;13497;48.322;16.204;2023-12-20T10:57:07;6.63;;;6.15;;
25639;SDS011;13497;48.322;16.204;2023-12-20T10:59:33;6.55;;;5.95;;
25639;SDS011;13497;48.322;16.204;2023-12-20T11:02:02;5.03;;;3.72;;
25639;SDS011;13497;48.322;16.204;2023-12-20T11:10:09;16.25;;;15.35;;
25639;SDS011;13497;48.322;16.204;2023-12-20T11:15:13;6.15;;;5.55;;
25639;SDS011;13497;48.322;16.204;2023-12-20T11:20:06;3.45;;;3.15;;
25639;SDS011;13497;48.322;16.204;2023-12-20T11:22:35;4.50;;;2.72;;
25639;SDS011;13497;48.322;16.204;2023-12-20T11:25:03;8.63;;;8.13;;
25639;SDS011;13497;48.322;16.204;2023-12-20T11:27:31;3.47;;;2.80;;
25639;SDS011;13497;48.322;16.204;2023-12-20T11:29:58;4.03;;;3.47;;
25639;SDS011;13497;48.322;16.204;2023-12-20T11:34:50;5.00;;;4.60;;
25639;SDS011;13497;48.322;16.204;2023-12-20T11:37:16;3.58;;;3.28;;
25639;SDS011;13497;48.322;16.204;2023-12-20T11:39:44;3.92;;;3.63;;
25639;SDS011;13497;48.322;16.204;2023-12-20T11:42:10;3.28;;;2.97;;
25639;SDS011;13497;48.322;16.204;2023-12-20T11:44:36;6.43;;;5.90;;
25639;SDS011;13497;48.322;16.204;2023-12-20T11:47:02;4.72;;;4.40;;
25639;SDS011;13497;48.322;16.204;2023-12-20T11:49:29;3.95;;;3.60;;
25639;SDS011;13497;48.322;16.204;2023-12-20T11:51:56;2.63;;;1.92;;
25639;SDS011;13497;48.322;16.204;2023-12-20T11:54:22;4.28;;;3.97;;
25639;SDS011;13497;48.322;16.204;2023-12-20T11:56:47;4.03;;;3.63;;
25639;SDS011;13497;48.322;16.204;2023-12-20T11:59:13;3.47;;;3.17;;
25639;SDS011;13497;48.322;16.204;2023-12-20T12:01:40;3.67;;;3.33;;
25639;SDS011;13497;48.322;16.204;2023-12-20T12:04:12;6.07;;;3.83;;
25639;SDS011;13497;48.322;16.204;2023-12-20T12:06:39;3.10;;;2.80;;
25639;SDS011;13497;48.322;16.204;2023-12-20T12:09:04;11.55;;;10.85;;
25639;SDS011;13497;48.322;16.204;2023-12-20T12:11:30;3.88;;;3.58;;
25639;SDS011;13497;48.322;16.204;2023-12-20T12:13:56;2.88;;;2.65;;
25639;SDS011;13497;48.322;16.204;2023-12-20T12:16:22;4.00;;;3.67;;
25639;SDS011;13497;48.322;16.204;2023-12-20T12:18:54;3.45;;;3.15;;
25639;SDS011;13497;48.322;16.204;2023-12-20T12:21:24;4.15;;;3.85;;
25639;SDS011;13497;48.322;16.204;2023-12-20T12:23:49;3.83;;;3.53;;
25639;SDS011;13497;48.322;16.204;2023-12-20T12:26:15;4.15;;;3.65;;
25639;SDS011;13497;48.322;16.204;2023-12-20T12:28:41;2.88;;;2.58;;
25639;SDS011;13497;48.322;16.204;2023-12-20T12:31:08;2.35;;;2.15;;
25639;SDS011;13497;48.322;16.204;2023-12-20T12:33:38;2.17;;;1.98;;
25639;SDS011;13497;48.322;16.204;2023-12-20T12:36:04;3.50;;;3.28;;
25639;SDS011;13497;48.322;16.204;2023-12-20T12:38:32;3.97;;;3.65;;
25639;SDS011;13497;48.322;16.204;2023-12-20T12:40:58;3.92;;;3.60;;
25639;SDS011;13497;48.322;16.204;2023-12-20T12:43:25;3.92;;;3.63;;
25639;SDS011;13497;48.322;16.204;2023-12-20T12:45:50;4.35;;;3.38;;
25639;SDS011;13497;48.322;16.204;2023-12-20T12:48:16;2.92;;;2.72;;
25639;SDS011;13497;48.322;16.204;2023-12-20T12:50:43;3.58;;;3.28;;
25639;SDS011;13497;48.322;16.204;2023-12-20T12:53:08;2.22;;;1.98;;
25639;SDS011;13497;48.322;16.204;2023-12-20T12:55:34;4.97;;;3.63;;
25639;SDS011;13497;48.322;16.204;2023-12-20T13:02:52;3.40;;;2.60;;
25639;SDS011;13497;48.322;16.204;2023-12-20T13:05:21;3.40;;;3.00;;
25639;SDS011;13497;48.322;16.204;2023-12-20T13:07:47;2.70;;;2.50;;
25639;SDS011;13497;48.322;16.204;2023-12-20T13:10:12;4.72;;;4.32;;
25639;SDS011;13497;48.322;16.204;2023-12-20T13:12:41;3.28;;;2.78;;
25639;SDS011;13497;48.322;16.204;2023-12-20T13:15:07;8.80;;;4.50;;
25639;SDS011;13497;48.322;16.204;2023-12-20T13:17:34;5.80;;;2.80;;
25639;SDS011;13497;48.322;16.204;2023-12-20T13:19:59;4.47;;;4.07;;
25639;SDS011;13497;48.322;16.204;2023-12-20T13:22:25;5.10;;;2.38;;
25639;SDS011;13497;48.322;16.204;2023-12-20T13:24:50;19.95;;;15.93;;
25639;SDS011;13497;48.322;16.204;2023-12-20T13:27:16;16.45;;;13.32;;
25639;SDS011;13497;48.322;16.204;2023-12-20T13:29:42;8.73;;;7.82;;
25639;SDS011;13497;48.322;16.204;2023-12-20T13:32:07;3.53;;;2.75;;
25639;SDS011;13497;48.322;16.204;2023-12-20T13:34:33;3.83;;;3.53;;
25639;SDS011;13497;48.322;16.204;2023-12-20T13:36:58;10.95;;;4.75;;
25639;SDS011;13497;48.322;16.204;2023-12-20T13:39:24;3.25;;;2.70;;
25639;SDS011;13497;48.322;16.204;2023-12-20T13:41:50;3.25;;;1.80;;
25639;SDS011;13497;48.322;16.204;2023-12-20T13:44:16;3.20;;;2.90;;
25639;SDS011;13497;48.322;16.204;2023-12-20T13:46:42;3.97;;;3.60;;
25639;SDS011;13497;48.322;16.204;2023-12-20T13:49:07;4.60;;;4.00;;
25639;SDS011;13497;48.322;16.204;2023-12-20T13:51:33;3.97;;;2.03;;
25639;SDS011;13497;48.322;16.204;2023-12-20T13:53:59;5.05;;;4.63;;
25639;SDS011;13497;48.322;16.204;2023-12-20T13:56:25;2.60;;;2.28;;
25639;SDS011;13497;48.322;16.204;2023-12-20T13:58:51;2.40;;;2.20;;
25639;SDS011;13497;48.322;16.204;2023-12-20T14:01:16;9.88;;;9.15;;
25639;SDS011;13497;48.322;16.204;2023-12-20T14:03:42;4.57;;;4.28;;
25639;SDS011;13497;48.322;16.204;2023-12-20T14:06:08;2.72;;;2.53;;
25639;SDS011;13497;48.322;16.204;2023-12-20T14:08:33;10.65;;;10.10;;
25639;SDS011;13497;48.322;16.204;2023-12-20T14:13:26;3.30;;;3.00;;
25639;SDS011;13497;48.322;16.204;2023-12-20T14:15:52;3.55;;;3.25;;
25639;SDS011;13497;48.322;16.204;2023-12-20T14:18:19;2.47;;;2.10;;
25639;SDS011;13497;48.322;16.204;2023-12-20T14:20:45;5.15;;;4.60;;
25639;SDS011;13497;48.322;16.204;2023-12-20T14:25:40;2.78;;;2.58;;
25639;SDS011;13497;48.322;16.204;2023-12-20T14:28:07;2.90;;;2.70;;
25639;SDS011;13497;48.322;16.204;2023-12-20T14:30:32;3.78;;;3.47;;
25639;SDS011;13497;48.322;16.204;2023-12-20T14:33:00;6.57;;;4.63;;
25639;SDS011;13497;48.322;16.204;2023-12-20T14:35:25;6.88;;;4.85;;
25639;SDS011;13497;48.322;16.204;2023-12-20T14:37:51;3.47;;;2.97;;
25639;SDS011;13497;48.322;16.204;2023-12-20T14:40:17;3.08;;;2.78;;
25639;SDS011;13497;48.322;16.204;2023-12-20T14:42:43;3.00;;;2.50;;
25639;SDS011;13497;48.322;16.204;2023-12-20T14:45:09;2.88;;;2.65;;
25639;SDS011;13497;48.322;16.204;2023-12-20T14:47:35;6.30;;;3.10;;
25639;SDS011;13497;48.322;16.204;2023-12-20T14:50:04;3.60;;;3.03;;
25639;SDS011;13497;48.322;16.204;2023-12-20T14:52:32;2.45;;;2.25;;
25639;SDS011;13497;48.322;16.204;2023-12-20T14:54:59;4.32;;;4.03;;
25639;SDS011;13497;48.322;16.204;2023-12-20T14:57:26;4.05;;;2.67;;